Time;durP1;ratioP1;P1;durP2;ratioP2;P2;SDS_P1;SDS_P2;PMS_P1;PMS_P2;Temp;Humidity;BMP_temperature;BMP_pressure;BME280_temperature;BME280_humidity;BME280_pressure;Samples;Min_cycle;Max_cycle;Signal;HPM_P1;HPM_P2
2021/05/24 00:02:16;;;;;;;1.42;0.40;;;11.30;99.90;;;;;;4940972;29;20039;-75
2021/05/24 00:04:43;;;;;;;1.48;0.40;;;11.40;99.90;;;;;;4955919;28;20073;-75
2021/05/24 00:07:09;;;;;;;2.55;0.40;;;11.40;99.90;;;;;;4946298;28;20114;-76
2021/05/24 00:09:35;;;;;;;2.55;0.57;;;11.40;99.90;;;;;;4937696;29;20042;-75
2021/05/24 00:12:02;;;;;;;2.85;0.60;;;11.40;99.90;;;;;;4947958;29;20145;-76
2021/05/24 00:14:31;;;;;;;3.08;0.50;;;11.30;99.90;;;;;;4952645;28;20067;-75
2021/05/24 00:16:57;;;;;;;1.98;0.50;;;11.30;99.90;;;;;;4952628;28;20040;-75
2021/05/24 00:19:23;;;;;;;3.88;0.50;;;11.40;99.90;;;;;;4953306;28;20079;-75
2021/05/24 00:21:48;;;;;;;3.33;0.50;;;11.30;99.90;;;;;;4942644;29;20067;-75
2021/05/24 00:24:14;;;;;;;5.57;0.90;;;11.30;99.90;;;;;;4933016;28;20492;-76
2021/05/24 00:29:18;;;;;;;5.07;0.77;;;11.20;99.90;;;;;;4958624;28;20134;-75
2021/05/24 00:31:44;;;;;;;2.75;0.77;;;11.30;99.90;;;;;;4959407;28;20066;-76
2021/05/24 00:34:11;;;;;;;6.25;0.65;;;11.40;99.90;;;;;;4950540;28;20384;-75
2021/05/24 00:36:37;;;;;;;3.47;0.63;;;11.30;99.90;;;;;;4940932;28;20059;-75
2021/05/24 00:39:07;;;;;;;4.70;0.55;;;11.20;99.90;;;;;;4951179;28;20533;-76
2021/05/24 00:41:38;;;;;;;4.55;0.50;;;11.20;99.90;;;;;;4951031;28;20066;-75
2021/05/24 00:44:04;;;;;;;3.15;0.70;;;11.20;99.90;;;;;;4961289;28;20535;-75
2021/05/24 00:46:31;;;;;;;1.88;0.50;;;11.20;99.90;;;;;;4956375;28;20031;-75
2021/05/24 00:48:59;;;;;;;1.80;0.60;;;11.20;99.90;;;;;;4950688;28;20046;-76
2021/05/24 00:51:31;;;;;;;3.20;0.50;;;11.20;99.90;;;;;;4964604;28;20034;-76
2021/05/24 00:54:00;;;;;;;4.78;0.90;;;11.20;99.90;;;;;;4966615;28;20161;-75
2021/05/24 00:56:26;;;;;;;2.15;0.55;;;11.10;99.90;;;;;;4964578;28;20054;-76
2021/05/24 00:58:55;;;;;;;2.33;0.60;;;11.00;99.90;;;;;;4973344;28;20469;-76
2021/05/24 01:01:20;;;;;;;5.20;0.60;;;11.00;99.90;;;;;;4968716;28;20068;-75
2021/05/24 01:03:46;;;;;;;1.65;0.55;;;11.00;99.90;;;;;;4951873;28;20034;-76
2021/05/24 01:06:20;;;;;;;1.88;0.43;;;11.00;99.90;;;;;;4960058;28;20031;-75
2021/05/24 01:08:54;;;;;;;2.47;0.52;;;11.10;99.90;;;;;;4970917;28;20085;-75
2021/05/24 01:11:27;;;;;;;3.03;0.40;;;11.00;99.90;;;;;;4965550;28;20444;-76
2021/05/24 01:13:55;;;;;;;1.83;0.52;;;10.90;99.90;;;;;;4951972;28;20570;-76
2021/05/24 01:16:21;;;;;;;3.60;0.65;;;10.90;99.90;;;;;;4972877;28;20384;-75
2021/05/24 01:18:47;;;;;;;3.13;0.80;;;10.90;99.90;;;;;;4973013;28;20041;-75
2021/05/24 01:21:16;;;;;;;3.25;0.57;;;11.00;99.90;;;;;;4967570;28;20042;-75
2021/05/24 01:23:46;;;;;;;1.80;0.50;;;11.00;99.90;;;;;;4963155;28;20343;-75
2021/05/24 01:26:15;;;;;;;3.65;0.70;;;11.00;99.90;;;;;;4951740;28;20519;-75
2021/05/24 01:28:44;;;;;;;2.17;0.40;;;11.00;99.90;;;;;;4960515;28;20119;-76
2021/05/24 01:31:12;;;;;;;1.98;0.50;;;10.90;99.90;;;;;;4945291;28;20098;-75
2021/05/24 01:33:41;;;;;;;2.30;0.50;;;11.00;99.90;;;;;;4960859;28;20047;-75
2021/05/24 01:36:09;;;;;;;3.92;0.80;;;11.00;99.90;;;;;;4940773;29;20030;-75
2021/05/24 01:38:40;;;;;;;2.13;0.47;;;11.00;99.90;;;;;;4942894;29;20114;-75
2021/05/24 01:41:09;;;;;;;4.47;1.00;;;10.90;99.90;;;;;;4945028;28;20042;-75
2021/05/24 01:43:35;;;;;;;2.20;0.57;;;10.90;99.90;;;;;;4945221;29;20044;-75
2021/05/24 01:46:04;;;;;;;1.73;0.50;;;10.90;99.90;;;;;;4951161;28;20102;-75
2021/05/24 01:48:35;;;;;;;2.33;0.43;;;10.90;99.90;;;;;;4947884;28;20392;-75
2021/05/24 01:51:02;;;;;;;2.85;0.52;;;10.90;99.90;;;;;;4961836;28;20027;-76
2021/05/24 01:53:30;;;;;;;1.15;0.40;;;11.00;99.90;;;;;;4934773;28;20525;-76
2021/05/24 01:55:56;;;;;;;3.80;0.60;;;11.00;99.90;;;;;;4943062;29;20034;-75
2021/05/24 01:58:26;;;;;;;3.17;0.50;;;11.00;99.90;;;;;;4938217;28;20042;-75
2021/05/24 02:01:03;;;;;;;2.83;0.60;;;11.00;99.90;;;;;;4948565;29;20023;-75
2021/05/24 02:03:28;;;;;;;3.33;0.60;;;11.00;99.90;;;;;;4944964;28;20039;-76
2021/05/24 02:05:54;;;;;;;2.80;0.60;;;11.00;99.90;;;;;;4943559;29;20031;-76
2021/05/24 02:08:23;;;;;;;6.30;0.63;;;11.00;99.90;;;;;;4955305;28;20035;-75
2021/05/24 02:10:51;;;;;;;6.38;0.80;;;11.00;99.90;;;;;;4949601;28;20027;-76
2021/05/24 02:13:20;;;;;;;4.97;0.77;;;11.10;99.90;;;;;;4952683;28;20035;-75
2021/05/24 02:15:46;;;;;;;2.15;0.52;;;11.10;99.90;;;;;;4937190;29;20590;-75
2021/05/24 02:18:11;;;;;;;6.32;0.50;;;11.10;99.90;;;;;;4955889;28;20060;-75
2021/05/24 02:20:40;;;;;;;3.70;0.60;;;11.10;99.90;;;;;;4970712;28;20035;-75
2021/05/24 02:23:08;;;;;;;2.40;0.47;;;11.10;99.90;;;;;;4938286;29;20035;-75
2021/05/24 02:25:38;;;;;;;2.10;0.55;;;11.20;99.90;;;;;;4938473;29;20400;-76
2021/05/24 02:28:06;;;;;;;2.65;0.68;;;11.10;99.90;;;;;;4945548;28;20106;-75
2021/05/24 02:30:36;;;;;;;4.13;0.70;;;11.10;99.90;;;;;;4939180;29;20031;-75
2021/05/24 02:33:04;;;;;;;4.38;0.45;;;11.10;99.90;;;;;;4957765;28;20039;-75
2021/05/24 02:35:30;;;;;;;2.85;0.40;;;11.10;99.90;;;;;;4957683;28;20027;-75
2021/05/24 02:37:56;;;;;;;1.83;0.60;;;11.10;99.90;;;;;;4967214;28;20286;-75
2021/05/24 02:40:22;;;;;;;3.72;0.50;;;11.10;99.90;;;;;;4958089;28;20038;-75
2021/05/24 02:42:51;;;;;;;3.10;0.47;;;11.10;99.90;;;;;;4958630;28;20034;-76
2021/05/24 02:45:21;;;;;;;2.72;0.50;;;11.00;99.90;;;;;;4962313;28;20046;-75
2021/05/24 02:47:47;;;;;;;2.22;0.50;;;11.10;99.90;;;;;;4953959;28;20039;-75
2021/05/24 02:50:16;;;;;;;4.07;0.55;;;11.10;99.90;;;;;;4961955;28;20061;-75
2021/05/24 02:52:42;;;;;;;2.95;0.50;;;11.10;99.90;;;;;;4960371;28;20042;-76
2021/05/24 02:55:09;;;;;;;1.27;0.40;;;11.10;99.90;;;;;;4952998;28;20035;-76
2021/05/24 02:57:34;;;;;;;2.05;0.40;;;11.10;99.90;;;;;;4952494;28;20114;-75
2021/05/24 03:00:03;;;;;;;2.45;0.60;;;11.10;99.90;;;;;;4955215;28;20142;-75
2021/05/24 03:02:30;;;;;;;1.85;0.40;;;11.10;99.90;;;;;;4962445;28;20035;-75
2021/05/24 03:04:56;;;;;;;1.63;0.50;;;11.10;99.90;;;;;;4953681;28;20058;-76
2021/05/24 03:07:22;;;;;;;2.60;0.50;;;11.20;99.90;;;;;;4965526;28;20031;-75
2021/05/24 03:09:50;;;;;;;3.00;0.40;;;11.20;99.90;;;;;;4942146;29;20079;-75
2021/05/24 03:12:19;;;;;;;1.92;0.63;;;11.20;99.90;;;;;;4966171;28;20133;-75
2021/05/24 03:14:44;;;;;;;1.45;0.40;;;11.20;99.90;;;;;;4958904;28;20043;-76
2021/05/24 03:17:13;;;;;;;3.72;0.60;;;11.20;99.90;;;;;;4963984;28;20019;-75
2021/05/24 03:19:39;;;;;;;2.28;0.40;;;11.20;99.90;;;;;;4962642;28;20043;-75
2021/05/24 03:22:04;;;;;;;2.63;0.55;;;11.00;99.90;;;;;;4961524;28;20027;-76
2021/05/24 03:24:30;;;;;;;1.85;0.52;;;11.00;99.90;;;;;;4959410;28;20183;-75
2021/05/24 03:26:56;;;;;;;2.83;0.40;;;11.00;99.90;;;;;;4957284;28;20368;-76
2021/05/24 03:29:24;;;;;;;5.28;0.90;;;11.00;99.90;;;;;;4962089;28;20059;-75
2021/05/24 03:31:49;;;;;;;1.75;0.60;;;11.00;99.90;;;;;;4960081;28;20118;-75
2021/05/24 03:34:18;;;;;;;2.97;0.50;;;11.10;99.90;;;;;;4953011;28;20666;-75
2021/05/24 03:36:44;;;;;;;3.88;0.70;;;11.20;99.90;;;;;;4960920;28;20058;-76
2021/05/24 03:39:12;;;;;;;3.25;0.60;;;11.20;99.90;;;;;;4952809;28;20235;-75
2021/05/24 03:41:45;;;;;;;3.92;0.50;;;11.20;99.90;;;;;;4959964;28;20380;-75
2021/05/24 03:44:16;;;;;;;3.92;0.55;;;11.20;99.90;;;;;;4952250;28;20490;-75
2021/05/24 03:47:07;;;;;;;1.08;0.50;;;11.20;99.90;;;;;;4961921;28;20042;-75
2021/05/24 03:49:53;;;;;;;5.55;0.63;;;11.30;99.90;;;;;;4959068;28;20047;-76
2021/05/24 03:52:21;;;;;;;4.60;0.60;;;11.30;99.90;;;;;;4957362;28;20066;-75
2021/05/24 03:54:49;;;;;;;1.77;0.40;;;11.30;99.90;;;;;;4968660;28;20575;-75
2021/05/24 03:57:15;;;;;;;3.80;0.52;;;11.20;99.90;;;;;;4959135;28;20493;-75
2021/05/24 03:59:43;;;;;;;3.15;0.60;;;11.20;99.90;;;;;;4944122;28;20158;-75
2021/05/24 04:02:15;;;;;;;3.25;0.60;;;11.20;99.90;;;;;;4950630;28;20038;-75
2021/05/24 04:04:46;;;;;;;2.25;0.60;;;11.10;99.90;;;;;;4959101;28;20494;-75
2021/05/24 04:07:21;;;;;;;2.75;0.60;;;11.20;99.90;;;;;;4950830;28;20138;-75
2021/05/24 04:09:50;;;;;;;2.50;0.50;;;11.20;99.90;;;;;;4974123;28;20062;-75
2021/05/24 04:12:16;;;;;;;3.42;0.60;;;11.20;99.90;;;;;;4950781;28;20306;-75
2021/05/24 04:14:47;;;;;;;3.97;0.50;;;11.20;99.90;;;;;;4958290;28;20034;-75
2021/05/24 04:17:15;;;;;;;3.90;0.68;;;11.20;99.90;;;;;;4957897;28;20046;-75
2021/05/24 04:19:51;;;;;;;5.25;0.63;;;11.20;99.90;;;;;;4955852;28;20347;-76
2021/05/24 04:22:20;;;;;;;3.80;0.75;;;11.20;99.90;;;;;;4954793;28;20038;-75
2021/05/24 04:24:51;;;;;;;3.47;0.50;;;11.30;99.90;;;;;;4952414;28;20038;-75
2021/05/24 04:27:17;;;;;;;1.53;0.60;;;11.20;99.90;;;;;;4940385;28;20031;-75
2021/05/24 04:29:46;;;;;;;3.55;0.70;;;11.20;99.90;;;;;;4953258;28;20913;-75
2021/05/24 04:32:12;;;;;;;4.10;0.80;;;11.20;99.90;;;;;;4973862;28;20041;-75
2021/05/24 04:34:38;;;;;;;2.28;0.60;;;11.20;99.90;;;;;;4959410;28;20042;-75
2021/05/24 04:37:03;;;;;;;5.15;0.73;;;11.30;99.90;;;;;;4958331;28;20063;-75
2021/05/24 04:39:35;;;;;;;5.05;0.65;;;11.30;99.90;;;;;;4962280;28;20046;-75
2021/05/24 04:42:05;;;;;;;2.35;0.50;;;11.20;99.90;;;;;;4955273;28;20032;-75
2021/05/24 04:44:32;;;;;;;3.28;0.70;;;11.20;99.90;;;;;;4979181;28;20410;-75
2021/05/24 04:46:57;;;;;;;3.72;0.70;;;11.30;99.90;;;;;;4956425;28;20051;-76
2021/05/24 04:49:26;;;;;;;1.85;0.60;;;11.30;99.90;;;;;;4961779;28;20085;-76
2021/05/24 04:51:57;;;;;;;3.08;0.60;;;11.20;99.90;;;;;;4964053;28;20033;-76
2021/05/24 04:54:24;;;;;;;4.43;0.65;;;11.20;99.90;;;;;;4965567;28;20461;-76
2021/05/24 04:56:50;;;;;;;7.00;0.70;;;11.30;99.90;;;;;;4946645;28;20035;-76
2021/05/24 04:59:19;;;;;;;3.03;0.60;;;11.30;99.90;;;;;;4964653;28;20031;-76
2021/05/24 05:01:47;;;;;;;3.08;0.70;;;11.30;99.90;;;;;;4958159;28;20066;-76
2021/05/24 05:04:16;;;;;;;2.35;0.77;;;11.20;99.90;;;;;;4947754;28;20042;-75
2021/05/24 05:06:42;;;;;;;3.28;0.80;;;11.20;99.90;;;;;;4980077;28;20393;-75
2021/05/24 05:09:08;;;;;;;5.03;0.90;;;11.10;99.90;;;;;;4965452;28;20073;-75
2021/05/24 05:11:36;;;;;;;5.20;0.80;;;11.10;99.90;;;;;;4963688;28;20047;-75
2021/05/24 05:14:09;;;;;;;5.85;1.00;;;11.10;99.90;;;;;;4955919;28;20058;-75
2021/05/24 05:16:35;;;;;;;4.90;1.02;;;11.10;99.90;;;;;;4959750;28;20049;-76
2021/05/24 05:19:03;;;;;;;5.53;0.90;;;11.10;99.90;;;;;;4955891;28;20031;-75
2021/05/24 05:21:29;;;;;;;5.25;1.00;;;11.20;99.90;;;;;;4962903;28;20477;-75
2021/05/24 05:23:58;;;;;;;2.90;0.95;;;11.20;99.90;;;;;;4938276;29;20222;-75
2021/05/24 05:26:24;;;;;;;3.58;0.90;;;11.30;99.90;;;;;;4937449;29;20384;-76
2021/05/24 05:28:50;;;;;;;8.48;1.00;;;11.30;99.90;;;;;;4953092;28;20070;-75
2021/05/24 05:31:16;;;;;;;5.15;0.55;;;11.20;99.90;;;;;;4963075;28;20031;-75
2021/05/24 05:33:41;;;;;;;2.10;0.50;;;11.20;99.90;;;;;;4954703;28;20118;-75
2021/05/24 05:36:10;;;;;;;5.95;0.50;;;11.10;99.90;;;;;;4961782;28;20491;-76
2021/05/24 05:38:36;;;;;;;4.22;0.60;;;11.10;99.90;;;;;;4954096;28;20477;-76
2021/05/24 05:41:03;;;;;;;4.30;1.20;;;11.10;99.90;;;;;;4962518;28;20031;-76
2021/05/24 05:43:29;;;;;;;2.53;0.68;;;11.10;99.90;;;;;;4956399;28;20421;-75
2021/05/24 05:45:54;;;;;;;4.72;0.50;;;11.10;99.90;;;;;;4959802;28;20026;-76
2021/05/24 05:48:20;;;;;;;4.20;1.23;;;11.10;99.90;;;;;;4959209;28;20039;-76
2021/05/24 05:50:48;;;;;;;3.03;0.80;;;11.20;99.90;;;;;;4940864;28;20034;-76
2021/05/24 05:53:14;;;;;;;5.82;1.10;;;11.30;99.90;;;;;;4972553;28;20039;-76
2021/05/24 05:55:45;;;;;;;4.00;1.20;;;11.30;99.90;;;;;;4956025;28;20026;-75
2021/05/24 05:58:11;;;;;;;3.22;0.70;;;11.40;99.90;;;;;;4964958;28;20034;-75
2021/05/24 06:00:39;;;;;;;3.75;1.20;;;11.50;99.90;;;;;;4947767;28;20066;-75
2021/05/24 06:03:12;;;;;;;5.18;0.90;;;11.50;99.90;;;;;;4965107;28;20433;-75
2021/05/24 06:05:54;;;;;;;2.60;0.82;;;11.50;99.90;;;;;;4953480;28;20202;-75
2021/05/24 06:08:29;;;;;;;8.52;1.00;;;11.50;99.90;;;;;;4971536;28;20027;-76
2021/05/24 06:11:06;;;;;;;6.82;1.02;;;11.50;99.90;;;;;;4957599;28;20053;-75
2021/05/24 06:13:43;;;;;;;5.90;1.13;;;11.40;99.90;;;;;;4961581;28;20534;-76
2021/05/24 06:16:32;;;;;;;7.53;0.80;;;11.40;99.90;;;;;;4963491;28;20038;-76
2021/05/24 06:18:58;;;;;;;2.10;0.57;;;11.30;99.90;;;;;;4959203;28;20070;-76
2021/05/24 06:21:29;;;;;;;3.50;0.80;;;11.40;99.90;;;;;;4946562;28;20142;-76
2021/05/24 06:24:03;;;;;;;4.38;1.00;;;11.40;99.90;;;;;;4967905;28;20143;-75
2021/05/24 06:26:44;;;;;;;4.65;1.00;;;11.50;99.90;;;;;;4940843;28;20037;-76
2021/05/24 06:29:13;;;;;;;4.22;0.77;;;11.50;99.90;;;;;;4955538;28;20051;-75
2021/05/24 06:31:42;;;;;;;5.55;2.17;;;11.60;99.90;;;;;;4974209;28;20041;-76
2021/05/24 06:34:08;;;;;;;5.78;1.48;;;11.60;99.90;;;;;;4971612;28;20092;-75
2021/05/24 06:36:41;;;;;;;3.45;1.42;;;11.60;99.90;;;;;;4978911;28;20544;-76
2021/05/24 06:39:16;;;;;;;5.15;1.10;;;11.60;99.90;;;;;;4955731;28;20503;-75
2021/05/24 06:41:42;;;;;;;3.75;0.95;;;11.60;99.90;;;;;;4970193;28;20483;-76
2021/05/24 06:44:11;;;;;;;5.00;0.98;;;11.60;99.90;;;;;;4972002;28;20070;-75
2021/05/24 06:46:39;;;;;;;4.95;0.70;;;11.70;99.90;;;;;;4979250;28;20042;-75
2021/05/24 06:49:07;;;;;;;4.18;0.98;;;11.80;99.90;;;;;;4973206;28;20034;-75
2021/05/24 06:51:33;;;;;;;3.67;0.93;;;11.80;99.90;;;;;;4963725;28;20035;-75
2021/05/24 06:53:59;;;;;;;4.63;0.90;;;11.70;99.90;;;;;;4963456;28;20523;-75
2021/05/24 06:56:25;;;;;;;2.47;0.70;;;11.80;99.90;;;;;;4962369;28;20034;-75
2021/05/24 06:58:50;;;;;;;2.40;0.60;;;11.80;99.90;;;;;;4960684;28;20052;-75
2021/05/24 07:01:16;;;;;;;3.33;0.80;;;11.90;99.90;;;;;;4958214;28;20074;-75
2021/05/24 07:03:42;;;;;;;2.25;0.70;;;12.00;99.90;;;;;;4962944;28;20527;-75
2021/05/24 07:06:07;;;;;;;3.25;1.00;;;12.10;99.90;;;;;;4959947;28;20026;-75
2021/05/24 07:08:33;;;;;;;5.65;1.10;;;12.10;99.90;;;;;;4968126;28;20138;-75
2021/05/24 07:10:59;;;;;;;4.53;0.95;;;12.20;99.90;;;;;;4968809;28;20054;-76
2021/05/24 07:13:25;;;;;;;6.50;0.90;;;12.30;99.90;;;;;;4969419;28;20045;-76
2021/05/24 07:15:51;;;;;;;3.30;0.90;;;12.40;99.90;;;;;;4962526;28;20023;-76
2021/05/24 07:18:18;;;;;;;7.38;0.98;;;12.40;99.90;;;;;;4969535;28;20086;-76
2021/05/24 07:20:44;;;;;;;5.30;0.93;;;12.50;99.90;;;;;;4964872;28;20063;-76
2021/05/24 07:23:09;;;;;;;4.13;0.70;;;12.50;99.90;;;;;;4969093;28;20132;-75
2021/05/24 07:25:35;;;;;;;4.45;0.70;;;12.50;99.90;;;;;;4965525;28;20113;-75
2021/05/24 07:28:00;;;;;;;4.47;0.80;;;12.40;99.90;;;;;;4967703;28;20062;-75
2021/05/24 07:30:26;;;;;;;4.95;1.42;;;12.40;99.90;;;;;;4969171;28;20065;-75
2021/05/24 07:32:52;;;;;;;5.95;0.90;;;12.40;99.90;;;;;;4970520;28;20481;-75
2021/05/24 07:35:17;;;;;;;2.97;0.73;;;12.50;99.90;;;;;;4972111;28;20041;-75
2021/05/24 07:37:43;;;;;;;5.45;1.15;;;12.40;99.90;;;;;;4971391;28;20039;-75
2021/05/24 07:40:10;;;;;;;3.97;0.68;;;12.40;99.90;;;;;;4968014;28;20073;-75
2021/05/24 07:42:36;;;;;;;3.65;0.80;;;12.50;99.90;;;;;;4971230;28;20027;-75
2021/05/24 07:45:03;;;;;;;2.65;0.88;;;12.50;99.90;;;;;;4967711;28;20610;-75
2021/05/24 07:47:28;;;;;;;8.20;1.10;;;12.60;99.90;;;;;;4968125;28;20066;-75
2021/05/24 07:49:54;;;;;;;2.53;0.70;;;12.60;99.90;;;;;;4967072;28;20043;-75
2021/05/24 07:52:19;;;;;;;5.00;0.93;;;12.70;99.90;;;;;;4970507;28;20383;-75
2021/05/24 07:54:45;;;;;;;3.58;0.80;;;12.80;99.90;;;;;;4971289;28;20773;-75
2021/05/24 07:57:11;;;;;;;3.83;1.00;;;12.80;99.90;;;;;;4970107;28;20022;-75
2021/05/24 07:59:37;;;;;;;4.95;0.90;;;12.90;99.90;;;;;;4984569;28;20390;-75
2021/05/24 08:02:03;;;;;;;5.85;0.80;;;13.00;99.90;;;;;;4971152;28;20054;-75
2021/05/24 08:04:30;;;;;;;2.08;0.70;;;13.10;99.90;;;;;;4969484;28;20074;-76
2021/05/24 08:06:56;;;;;;;4.13;1.05;;;13.10;99.90;;;;;;4970733;28;20620;-75
2021/05/24 08:09:22;;;;;;;2.63;1.00;;;13.10;99.90;;;;;;4972541;28;20073;-75
2021/05/24 08:11:48;;;;;;;3.03;0.63;;;13.20;99.90;;;;;;4970020;28;20126;-75
2021/05/24 08:14:15;;;;;;;3.90;0.68;;;13.30;99.90;;;;;;4970191;28;20040;-75
2021/05/24 08:16:42;;;;;;;3.83;0.90;;;13.30;99.90;;;;;;4971333;28;20035;-75
2021/05/24 08:19:07;;;;;;;5.65;0.80;;;13.30;99.90;;;;;;4972128;28;20035;-75
2021/05/24 08:21:33;;;;;;;4.55;0.70;;;13.40;99.90;;;;;;4971480;28;20046;-74
2021/05/24 08:23:59;;;;;;;5.28;0.70;;;13.40;99.90;;;;;;4965983;28;20452;-75
2021/05/24 08:26:24;;;;;;;5.93;0.60;;;13.40;99.90;;;;;;4968126;28;20031;-76
2021/05/24 08:28:50;;;;;;;4.60;0.68;;;13.50;99.90;;;;;;4971552;28;20061;-76
2021/05/24 08:31:15;;;;;;;3.25;0.65;;;13.40;99.90;;;;;;4970029;28;20408;-76
2021/05/24 08:33:41;;;;;;;2.55;0.70;;;13.40;99.90;;;;;;4971173;28;20533;-76
2021/05/24 08:36:07;;;;;;;5.45;0.77;;;13.50;99.90;;;;;;4971404;28;20058;-76
2021/05/24 08:38:33;;;;;;;4.18;1.00;;;13.50;99.90;;;;;;4984082;28;20035;-76
2021/05/24 08:41:06;;;;;;;3.72;1.05;;;13.40;99.90;;;;;;4970366;28;20452;-76
2021/05/24 08:43:32;;;;;;;5.95;1.10;;;13.50;99.90;;;;;;4970811;28;20066;-76
2021/05/24 08:46:00;;;;;;;3.97;0.88;;;13.60;99.90;;;;;;4964961;28;20041;-76
2021/05/24 08:48:26;;;;;;;4.50;1.10;;;13.70;99.90;;;;;;4964937;28;20039;-76
2021/05/24 08:50:52;;;;;;;3.75;1.10;;;13.70;99.90;;;;;;4965158;28;20078;-76
2021/05/24 08:53:17;;;;;;;2.45;0.88;;;13.80;99.90;;;;;;4965332;28;20396;-76
2021/05/24 08:55:44;;;;;;;6.60;1.30;;;13.90;99.90;;;;;;4960007;28;20497;-76
2021/05/24 08:58:10;;;;;;;3.25;0.98;;;14.00;99.90;;;;;;4966422;28;20046;-76
2021/05/24 09:00:36;;;;;;;3.78;1.10;;;14.10;99.90;;;;;;4978376;28;20027;-76
2021/05/24 09:03:01;;;;;;;8.40;1.80;;;14.10;99.90;;;;;;4966659;28;20042;-76
2021/05/24 09:05:32;;;;;;;11.73;2.53;;;14.20;99.90;;;;;;4961307;28;20031;-76
2021/05/24 09:08:00;;;;;;;4.78;1.40;;;14.40;99.90;;;;;;4981475;28;20053;-76
2021/05/24 09:10:28;;;;;;;3.35;0.82;;;14.40;99.90;;;;;;4965608;28;20026;-76
2021/05/24 09:12:55;;;;;;;5.88;1.10;;;14.40;99.90;;;;;;4961703;28;20043;-76
2021/05/24 09:15:23;;;;;;;3.08;0.90;;;14.30;99.90;;;;;;4960470;28;20476;-76
2021/05/24 09:17:55;;;;;;;3.97;0.95;;;14.30;99.90;;;;;;4977468;28;20042;-76
2021/05/24 09:20:21;;;;;;;4.05;0.90;;;14.40;99.90;;;;;;4985401;28;20022;-76
2021/05/24 09:23:14;;;;;;;6.18;0.73;;;14.50;99.90;;;;;;4963234;28;20047;-76
2021/05/24 09:25:50;;;;;;;3.70;0.80;;;14.60;99.90;;;;;;4963846;28;20447;-76
2021/05/24 09:28:48;;;;;;;3.00;0.70;;;14.50;99.90;;;;;;4968389;28;20051;-76
2021/05/24 09:31:23;;;;;;;3.08;0.60;;;14.80;99.90;;;;;;4968191;28;20054;-76
2021/05/24 09:33:53;;;;;;;3.63;0.70;;;14.90;99.90;;;;;;4969649;28;20089;-76
2021/05/24 09:36:19;;;;;;;7.13;0.73;;;15.00;99.90;;;;;;4973407;28;20031;-76
2021/05/24 09:38:47;;;;;;;3.42;0.70;;;15.00;99.90;;;;;;4965196;28;20070;-76
2021/05/24 09:41:14;;;;;;;3.58;0.98;;;15.10;99.90;;;;;;4969592;28;20082;-76
2021/05/24 09:43:46;;;;;;;3.83;0.80;;;14.80;99.90;;;;;;4966816;28;20039;-76
2021/05/24 09:46:13;;;;;;;3.53;0.77;;;14.90;99.90;;;;;;4968654;28;20077;-76
2021/05/24 09:48:39;;;;;;;6.90;1.10;;;15.00;99.90;;;;;;4970558;28;20310;-76
2021/05/24 09:51:12;;;;;;;2.60;0.90;;;15.30;99.90;;;;;;4984641;28;20042;-76
2021/05/24 09:53:38;;;;;;;4.28;1.20;;;15.40;99.90;;;;;;4967443;28;20416;-76
2021/05/24 09:56:07;;;;;;;4.57;1.10;;;15.40;99.90;;;;;;4966942;28;20069;-76
2021/05/24 09:58:33;;;;;;;3.88;1.02;;;15.30;99.90;;;;;;4983531;28;20038;-76
2021/05/24 10:01:13;;;;;;;7.63;1.00;;;15.30;99.90;;;;;;4972175;28;20503;-76
2021/05/24 10:03:40;;;;;;;6.15;1.25;;;15.20;99.90;;;;;;4966685;28;20070;-76
2021/05/24 10:06:06;;;;;;;3.38;0.70;;;15.10;99.90;;;;;;4963880;28;20031;-75
2021/05/24 10:08:33;;;;;;;6.35;0.80;;;15.10;99.90;;;;;;4960648;28;20204;-75
2021/05/24 10:11:00;;;;;;;6.88;1.35;;;15.20;99.90;;;;;;4964639;28;20035;-76
2021/05/24 10:13:28;;;;;;;11.13;0.95;;;15.20;99.90;;;;;;4963289;28;20042;-75
2021/05/24 10:16:00;;;;;;;5.03;1.00;;;15.20;99.90;;;;;;4966120;28;20041;-75
2021/05/24 10:18:27;;;;;;;3.00;0.82;;;15.20;99.90;;;;;;4964934;28;20035;-75
2021/05/24 10:20:52;;;;;;;3.83;1.10;;;15.30;99.90;;;;;;4965512;28;20041;-75
2021/05/24 10:23:20;;;;;;;4.60;1.33;;;15.30;99.90;;;;;;4963535;28;20039;-75
2021/05/24 10:25:46;;;;;;;5.35;1.48;;;15.20;99.90;;;;;;4964969;28;20037;-76
2021/05/24 10:28:12;;;;;;;5.30;1.20;;;15.10;99.90;;;;;;4965813;28;20046;-76
2021/05/24 10:30:38;;;;;;;6.28;1.30;;;15.00;99.90;;;;;;4954958;28;20050;-76
2021/05/24 10:33:10;;;;;;;4.18;0.90;;;15.00;99.90;;;;;;4962753;28;20465;-76
2021/05/24 10:35:37;;;;;;;6.43;1.92;;;15.10;99.90;;;;;;4960595;28;20031;-75
2021/05/24 10:38:35;;;;;;;5.10;1.02;;;15.00;99.90;;;;;;4962500;28;20042;-76
2021/05/24 10:41:08;;;;;;;3.80;1.00;;;14.90;99.90;;;;;;4961169;28;20035;-76
2021/05/24 10:43:49;;;;;;;4.80;1.00;;;14.80;99.90;;;;;;4961812;28;20035;-75
2021/05/24 10:46:28;;;;;;;4.20;0.80;;;14.80;99.90;;;;;;4958496;28;20439;-75
2021/05/24 10:48:58;;;;;;;8.65;2.25;;;14.80;99.90;;;;;;4961353;28;20042;-75
2021/05/24 10:52:02;;;;;;;6.13;1.52;;;14.80;99.90;;;;;;4974717;28;20048;-75
2021/05/24 10:54:35;;;;;;;4.45;1.50;;;14.80;99.90;;;;;;4961889;28;20606;-75
2021/05/24 10:57:01;;;;;;;5.63;1.27;;;14.80;99.90;;;;;;4960036;28;20190;-75
2021/05/24 10:59:39;;;;;;;5.25;2.05;;;14.80;99.90;;;;;;4960066;28;20126;-77
2021/05/24 11:02:08;;;;;;;7.43;1.63;;;14.80;99.90;;;;;;4962258;28;20031;-74
2021/05/24 11:04:51;;;;;;;5.53;1.08;;;14.90;99.90;;;;;;4961427;28;20412;-75
2021/05/24 11:07:36;;;;;;;;;;;15.00;99.90;;;;;;4976967;28;20468;-75
2021/05/24 11:10:17;;;;;;;4.55;0.90;;;15.00;99.90;;;;;;4965336;28;20261;-74
2021/05/24 11:12:49;;;;;;;4.30;1.20;;;15.00;99.90;;;;;;4964209;28;20306;-75
2021/05/24 11:15:31;;;;;;;3.90;1.00;;;15.00;99.90;;;;;;4962145;28;20109;-75
2021/05/24 11:18:00;;;;;;;4.35;1.63;;;15.00;99.90;;;;;;4963284;28;20085;-75
2021/05/24 11:20:59;;;;;;;6.80;1.70;;;15.10;99.90;;;;;;4961986;28;20473;-76
2021/05/24 11:26:28;;;;;;;7.38;2.97;;;15.20;99.90;;;;;;4962787;28;20053;-75
2021/05/24 11:29:14;;;;;;;11.40;2.40;;;15.20;99.90;;;;;;4963825;28;20086;-75
2021/05/24 11:31:40;;;;;;;9.35;2.00;;;15.20;99.90;;;;;;4965925;28;20078;-75
2021/05/24 11:34:09;;;;;;;7.40;2.42;;;15.30;99.90;;;;;;4966824;28;20059;-75
2021/05/24 11:36:35;;;;;;;5.22;2.25;;;15.30;99.90;;;;;;4966628;28;20027;-75
2021/05/24 11:39:31;;;;;;;5.10;1.38;;;15.40;99.90;;;;;;4966542;28;20038;-75
2021/05/24 11:42:11;;;;;;;5.07;1.95;;;15.50;99.90;;;;;;4977687;28;20085;-75
2021/05/24 11:44:40;;;;;;;4.47;1.13;;;15.50;99.90;;;;;;4957965;28;20083;-75
2021/05/24 11:47:11;;;;;;;5.97;1.23;;;15.50;99.90;;;;;;4964859;28;20035;-75
2021/05/24 11:49:42;;;;;;;3.78;0.80;;;15.60;99.90;;;;;;4964077;28;20377;-75
2021/05/24 11:52:17;;;;;;;5.28;1.20;;;15.80;99.90;;;;;;4968023;28;20065;-75
2021/05/24 11:54:47;;;;;;;4.78;0.93;;;15.90;99.90;;;;;;4967909;28;20057;-75
2021/05/24 11:57:13;;;;;;;3.97;0.77;;;16.20;99.90;;;;;;4970408;28;20037;-75
2021/05/24 11:59:39;;;;;;;3.90;0.60;;;16.40;99.90;;;;;;4972823;28;20038;-75
2021/05/24 12:02:06;;;;;;;4.57;0.82;;;16.60;99.90;;;;;;4970237;28;20031;-74
2021/05/24 12:04:38;;;;;;;3.72;0.77;;;16.90;99.90;;;;;;4968129;28;20031;-75
2021/05/24 12:07:09;;;;;;;2.17;0.50;;;17.10;99.90;;;;;;4969894;28;20038;-75
2021/05/24 12:09:37;;;;;;;6.88;0.73;;;17.30;99.90;;;;;;4970863;28;20045;-76
2021/05/24 12:12:24;;;;;;;2.15;0.60;;;17.60;99.90;;;;;;4965534;28;20117;-75
2021/05/24 12:14:55;;;;;;;1.60;0.50;;;17.70;99.90;;;;;;4959478;28;20034;-75
2021/05/24 12:17:24;;;;;;;2.08;0.63;;;17.80;99.90;;;;;;4960861;28;20488;-75
2021/05/24 12:19:53;;;;;;;1.85;0.43;;;17.90;99.90;;;;;;4964936;28;21262;-75
2021/05/24 12:22:21;;;;;;;2.20;0.50;;;17.90;99.90;;;;;;4962535;28;20069;-75
2021/05/24 12:24:48;;;;;;;2.70;0.43;;;17.90;99.90;;;;;;4959497;28;20144;-75
2021/05/24 12:27:16;;;;;;;3.38;0.40;;;17.90;99.90;;;;;;4964475;28;20038;-75
2021/05/24 12:29:51;;;;;;;3.67;0.50;;;17.90;99.70;;;;;;4965826;28;20389;-75
2021/05/24 12:32:58;;;;;;;6.75;0.40;;;18.00;99.80;;;;;;4965082;28;20035;-75
2021/05/24 12:35:30;;;;;;;1.35;0.40;;;17.90;99.40;;;;;;4933225;28;20054;-75
2021/05/24 12:40:57;;;;;;;2.25;0.40;;;17.90;99.90;;;;;;4968469;28;20073;-75
2021/05/24 12:43:23;;;;;;;1.80;0.60;;;18.10;99.90;;;;;;4962043;28;20412;-75
2021/05/24 12:45:49;;;;;;;1.30;0.45;;;18.00;99.60;;;;;;4964367;28;20043;-75
2021/05/24 12:48:17;;;;;;;1.52;0.50;;;17.70;98.90;;;;;;4962279;28;20430;-75
2021/05/24 12:50:46;;;;;;;3.55;1.00;;;17.90;99.90;;;;;;4963019;28;20402;-75
2021/05/24 12:53:20;;;;;;;4.10;1.13;;;18.00;99.90;;;;;;4961459;28;20031;-74
2021/05/24 12:55:47;;;;;;;5.93;0.68;;;18.10;99.90;;;;;;4963248;28;20034;-75
2021/05/24 12:58:16;;;;;;;4.72;0.98;;;18.10;99.90;;;;;;4963812;28;20035;-75
2021/05/24 13:01:08;;;;;;;3.38;0.82;;;18.10;99.10;;;;;;4967325;28;20039;-75
2021/05/24 13:03:44;;;;;;;2.35;0.50;;;18.20;99.90;;;;;;4957765;28;20055;-75
2021/05/24 13:06:11;;;;;;;2.72;0.70;;;18.30;99.90;;;;;;4962535;28;20039;-75
2021/05/24 13:09:03;;;;;;;3.53;0.85;;;18.30;99.90;;;;;;4965975;28;20046;-75